sensor_id;sensor_type;location;lat;lon;timestamp;temperature;humidity
6054;DHT22;3055;50.886;14.814;2023-07-24T00:00:09;19.10;1.00
6054;DHT22;3055;50.886;14.814;2023-07-24T00:02:38;19.10;1.00
6054;DHT22;3055;50.886;14.814;2023-07-24T00:05:05;19.20;1.00
6054;DHT22;3055;50.886;14.814;2023-07-24T00:07:32;19.30;1.00
6054;DHT22;3055;50.886;14.814;2023-07-24T00:09:59;19.40;1.00
6054;DHT22;3055;50.886;14.814;2023-07-24T00:12:26;19.40;1.00
6054;DHT22;3055;50.886;14.814;2023-07-24T00:14:53;19.50;1.00
6054;DHT22;3055;50.886;14.814;2023-07-24T00:17:20;19.50;1.00
6054;DHT22;3055;50.886;14.814;2023-07-24T00:19:49;19.60;1.00
6054;DHT22;3055;50.886;14.814;2023-07-24T00:22:16;19.60;1.00
6054;DHT22;3055;50.886;14.814;2023-07-24T00:24:43;19.60;1.00
6054;DHT22;3055;50.886;14.814;2023-07-24T00:27:10;19.60;1.00
6054;DHT22;3055;50.886;14.814;2023-07-24T00:29:37;19.50;1.00
6054;DHT22;3055;50.886;14.814;2023-07-24T00:32:05;19.60;1.00
6054;DHT22;3055;50.886;14.814;2023-07-24T00:34:32;19.70;1.00
6054;DHT22;3055;50.886;14.814;2023-07-24T00:37:01;19.60;1.00
6054;DHT22;3055;50.886;14.814;2023-07-24T00:39:28;19.50;1.00
6054;DHT22;3055;50.886;14.814;2023-07-24T00:41:55;19.50;1.00
6054;DHT22;3055;50.886;14.814;2023-07-24T00:44:22;19.60;1.00
6054;DHT22;3055;50.886;14.814;2023-07-24T00:46:49;19.50;1.00
6054;DHT22;3055;50.886;14.814;2023-07-24T00:49:17;19.60;1.00
6054;DHT22;3055;50.886;14.814;2023-07-24T00:51:44;19.60;1.00
6054;DHT22;3055;50.886;14.814;2023-07-24T00:54:14;19.60;1.00
6054;DHT22;3055;50.886;14.814;2023-07-24T00:56:44;19.50;1.00
6054;DHT22;3055;50.886;14.814;2023-07-24T00:59:11;19.40;1.00
6054;DHT22;3055;50.886;14.814;2023-07-24T01:01:40;19.20;1.00
6054;DHT22;3055;50.886;14.814;2023-07-24T01:04:08;19.20;1.00
6054;DHT22;3055;50.886;14.814;2023-07-24T01:06:35;19.00;1.00
6054;DHT22;3055;50.886;14.814;2023-07-24T01:09:02;18.90;1.00
6054;DHT22;3055;50.886;14.814;2023-07-24T01:11:36;18.90;1.00
6054;DHT22;3055;50.886;14.814;2023-07-24T01:14:09;19.00;1.00
6054;DHT22;3055;50.886;14.814;2023-07-24T01:16:37;19.00;1.00
6054;DHT22;3055;50.886;14.814;2023-07-24T01:19:11;19.00;1.00
6054;DHT22;3055;50.886;14.814;2023-07-24T01:21:45;18.90;1.00
6054;DHT22;3055;50.886;14.814;2023-07-24T01:24:24;18.90;1.00
6054;DHT22;3055;50.886;14.814;2023-07-24T01:26:56;18.90;1.00
6054;DHT22;3055;50.886;14.814;2023-07-24T01:29:23;19.00;1.00
6054;DHT22;3055;50.886;14.814;2023-07-24T01:31:50;19.10;1.00
6054;DHT22;3055;50.886;14.814;2023-07-24T01:34:17;19.10;1.00
6054;DHT22;3055;50.886;14.814;2023-07-24T01:36:45;19.20;1.00
6054;DHT22;3055;50.886;14.814;2023-07-24T01:39:12;19.10;1.00
6054;DHT22;3055;50.886;14.814;2023-07-24T01:41:40;19.10;1.00
6054;DHT22;3055;50.886;14.814;2023-07-24T01:44:08;19.20;1.00
6054;DHT22;3055;50.886;14.814;2023-07-24T01:46:35;19.10;1.00
6054;DHT22;3055;50.886;14.814;2023-07-24T01:49:02;19.10;1.00
6054;DHT22;3055;50.886;14.814;2023-07-24T01:51:29;19.10;1.00
6054;DHT22;3055;50.886;14.814;2023-07-24T01:53:57;19.10;1.00
6054;DHT22;3055;50.886;14.814;2023-07-24T01:56:24;19.20;1.00
6054;DHT22;3055;50.886;14.814;2023-07-24T01:58:51;19.20;1.00
6054;DHT22;3055;50.886;14.814;2023-07-24T02:01:19;19.10;1.00
6054;DHT22;3055;50.886;14.814;2023-07-24T02:03:47;19.20;1.00
6054;DHT22;3055;50.886;14.814;2023-07-24T02:06:14;19.30;1.00
6054;DHT22;3055;50.886;14.814;2023-07-24T02:08:41;19.20;1.00
6054;DHT22;3055;50.886;14.814;2023-07-24T02:11:14;19.20;1.00
6054;DHT22;3055;50.886;14.814;2023-07-24T02:13:42;19.20;1.00
6054;DHT22;3055;50.886;14.814;2023-07-24T02:16:10;19.10;1.00
6054;DHT22;3055;50.886;14.814;2023-07-24T02:18:38;19.10;1.00
6054;DHT22;3055;50.886;14.814;2023-07-24T02:21:05;19.10;1.00
6054;DHT22;3055;50.886;14.814;2023-07-24T02:23:32;19.20;1.00
6054;DHT22;3055;50.886;14.814;2023-07-24T02:26:00;19.20;1.00
6054;DHT22;3055;50.886;14.814;2023-07-24T02:28:27;19.20;1.00
6054;DHT22;3055;50.886;14.814;2023-07-24T02:30:54;19.20;1.00
6054;DHT22;3055;50.886;14.814;2023-07-24T02:33:22;19.10;1.00
6054;DHT22;3055;50.886;14.814;2023-07-24T02:35:53;19.00;1.00
6054;DHT22;3055;50.886;14.814;2023-07-24T02:38:20;18.90;1.00
6054;DHT22;3055;50.886;14.814;2023-07-24T02:40:47;18.90;1.00
6054;DHT22;3055;50.886;14.814;2023-07-24T02:43:14;19.00;1.00
6054;DHT22;3055;50.886;14.814;2023-07-24T02:45:41;19.00;1.00
6054;DHT22;3055;50.886;14.814;2023-07-24T02:48:09;19.00;1.00
6054;DHT22;3055;50.886;14.814;2023-07-24T02:50:36;19.00;1.00
6054;DHT22;3055;50.886;14.814;2023-07-24T02:53:04;19.00;1.00
6054;DHT22;3055;50.886;14.814;2023-07-24T02:55:31;19.00;1.00
6054;DHT22;3055;50.886;14.814;2023-07-24T02:57:58;19.00;1.00
6054;DHT22;3055;50.886;14.814;2023-07-24T03:00:25;19.20;1.00
6054;DHT22;3055;50.886;14.814;2023-07-24T03:02:52;19.20;1.00
6054;DHT22;3055;50.886;14.814;2023-07-24T03:05:20;19.30;1.00
6054;DHT22;3055;50.886;14.814;2023-07-24T03:07:47;19.50;1.00
6054;DHT22;3055;50.886;14.814;2023-07-24T03:10:15;19.60;1.00
6054;DHT22;3055;50.886;14.814;2023-07-24T03:12:42;19.70;1.00
6054;DHT22;3055;50.886;14.814;2023-07-24T03:15:10;19.80;1.00
6054;DHT22;3055;50.886;14.814;2023-07-24T03:17:37;19.90;1.00
6054;DHT22;3055;50.886;14.814;2023-07-24T03:20:15;20.00;1.00
6054;DHT22;3055;50.886;14.814;2023-07-24T03:22:42;20.10;1.00
6054;DHT22;3055;50.886;14.814;2023-07-24T03:25:10;20.20;1.00
6054;DHT22;3055;50.886;14.814;2023-07-24T03:27:38;20.20;1.00
6054;DHT22;3055;50.886;14.814;2023-07-24T03:30:06;20.20;1.00
6054;DHT22;3055;50.886;14.814;2023-07-24T03:32:34;20.20;1.00
6054;DHT22;3055;50.886;14.814;2023-07-24T03:35:02;20.20;1.00
6054;DHT22;3055;50.886;14.814;2023-07-24T03:37:29;20.10;1.00
6054;DHT22;3055;50.886;14.814;2023-07-24T03:39:56;20.10;1.00
6054;DHT22;3055;50.886;14.814;2023-07-24T03:42:27;20.10;1.00
6054;DHT22;3055;50.886;14.814;2023-07-24T03:44:56;20.10;1.00
6054;DHT22;3055;50.886;14.814;2023-07-24T03:47:23;20.00;1.00
6054;DHT22;3055;50.886;14.814;2023-07-24T03:49:50;20.00;1.00
6054;DHT22;3055;50.886;14.814;2023-07-24T03:52:18;20.00;1.00
6054;DHT22;3055;50.886;14.814;2023-07-24T03:54:45;20.00;1.00
6054;DHT22;3055;50.886;14.814;2023-07-24T03:57:12;20.00;1.00
6054;DHT22;3055;50.886;14.814;2023-07-24T03:59:39;20.00;1.00
6054;DHT22;3055;50.886;14.814;2023-07-24T04:02:07;20.00;1.00
6054;DHT22;3055;50.886;14.814;2023-07-24T04:04:34;20.00;1.00
6054;DHT22;3055;50.886;14.814;2023-07-24T04:07:02;20.10;1.00
6054;DHT22;3055;50.886;14.814;2023-07-24T04:09:29;20.10;1.00
6054;DHT22;3055;50.886;14.814;2023-07-24T04:11:56;20.10;1.00
6054;DHT22;3055;50.886;14.814;2023-07-24T04:14:23;20.00;1.00
6054;DHT22;3055;50.886;14.814;2023-07-24T04:16:50;20.00;1.00
6054;DHT22;3055;50.886;14.814;2023-07-24T04:19:18;20.00;1.00
6054;DHT22;3055;50.886;14.814;2023-07-24T04:21:45;20.00;1.00
6054;DHT22;3055;50.886;14.814;2023-07-24T04:24:12;20.00;1.00
6054;DHT22;3055;50.886;14.814;2023-07-24T04:26:39;20.00;1.00
6054;DHT22;3055;50.886;14.814;2023-07-24T04:29:07;20.10;1.00
6054;DHT22;3055;50.886;14.814;2023-07-24T04:31:34;20.10;1.00
6054;DHT22;3055;50.886;14.814;2023-07-24T04:34:02;20.10;1.00
6054;DHT22;3055;50.886;14.814;2023-07-24T04:36:30;20.20;1.00
6054;DHT22;3055;50.886;14.814;2023-07-24T04:38:57;20.20;1.00
6054;DHT22;3055;50.886;14.814;2023-07-24T04:41:24;20.30;1.00
6054;DHT22;3055;50.886;14.814;2023-07-24T04:43:51;20.30;1.00
6054;DHT22;3055;50.886;14.814;2023-07-24T04:46:18;20.30;1.00
6054;DHT22;3055;50.886;14.814;2023-07-24T04:48:45;20.30;1.00
6054;DHT22;3055;50.886;14.814;2023-07-24T04:51:12;20.40;1.00
6054;DHT22;3055;50.886;14.814;2023-07-24T04:53:40;20.40;1.00
6054;DHT22;3055;50.886;14.814;2023-07-24T04:56:08;20.50;1.00
6054;DHT22;3055;50.886;14.814;2023-07-24T04:58:36;20.60;1.00
6054;DHT22;3055;50.886;14.814;2023-07-24T05:01:03;20.70;1.00
6054;DHT22;3055;50.886;14.814;2023-07-24T05:03:30;20.80;1.00
6054;DHT22;3055;50.886;14.814;2023-07-24T05:05:57;20.80;1.00
6054;DHT22;3055;50.886;14.814;2023-07-24T05:08:25;20.90;1.00
6054;DHT22;3055;50.886;14.814;2023-07-24T05:10:56;21.00;1.00
6054;DHT22;3055;50.886;14.814;2023-07-24T05:13:24;21.00;1.00
6054;DHT22;3055;50.886;14.814;2023-07-24T05:15:51;21.00;1.00
6054;DHT22;3055;50.886;14.814;2023-07-24T05:18:19;21.10;1.00
6054;DHT22;3055;50.886;14.814;2023-07-24T05:20:46;21.20;1.00
6054;DHT22;3055;50.886;14.814;2023-07-24T05:23:14;21.20;1.00
6054;DHT22;3055;50.886;14.814;2023-07-24T05:25:42;21.20;1.00
6054;DHT22;3055;50.886;14.814;2023-07-24T05:28:10;21.30;1.00
6054;DHT22;3055;50.886;14.814;2023-07-24T05:30:37;21.30;1.00
6054;DHT22;3055;50.886;14.814;2023-07-24T05:33:04;21.30;1.00
6054;DHT22;3055;50.886;14.814;2023-07-24T05:35:31;21.40;1.00
6054;DHT22;3055;50.886;14.814;2023-07-24T05:37:58;21.60;1.00
6054;DHT22;3055;50.886;14.814;2023-07-24T05:40:25;21.60;1.00
6054;DHT22;3055;50.886;14.814;2023-07-24T05:42:53;21.60;1.00
6054;DHT22;3055;50.886;14.814;2023-07-24T05:45:22;21.70;1.00
6054;DHT22;3055;50.886;14.814;2023-07-24T05:47:49;21.80;1.00
6054;DHT22;3055;50.886;14.814;2023-07-24T05:50:16;22.00;1.00
6054;DHT22;3055;50.886;14.814;2023-07-24T05:52:43;22.10;1.00
6054;DHT22;3055;50.886;14.814;2023-07-24T05:55:11;22.20;1.00
6054;DHT22;3055;50.886;14.814;2023-07-24T05:57:38;22.40;1.00
6054;DHT22;3055;50.886;14.814;2023-07-24T06:00:06;22.60;1.00
6054;DHT22;3055;50.886;14.814;2023-07-24T06:02:35;22.80;1.00
6054;DHT22;3055;50.886;14.814;2023-07-24T06:05:02;23.10;1.00
6054;DHT22;3055;50.886;14.814;2023-07-24T06:07:29;23.30;1.00
6054;DHT22;3055;50.886;14.814;2023-07-24T06:09:56;23.40;1.00
6054;DHT22;3055;50.886;14.814;2023-07-24T06:12:23;23.60;1.00
6054;DHT22;3055;50.886;14.814;2023-07-24T06:14:50;23.70;1.00
6054;DHT22;3055;50.886;14.814;2023-07-24T06:17:17;23.90;1.00
6054;DHT22;3055;50.886;14.814;2023-07-24T06:19:46;24.00;1.00
6054;DHT22;3055;50.886;14.814;2023-07-24T06:22:13;23.80;1.00
6054;DHT22;3055;50.886;14.814;2023-07-24T06:24:40;23.60;1.00
6054;DHT22;3055;50.886;14.814;2023-07-24T06:27:07;23.60;1.00
6054;DHT22;3055;50.886;14.814;2023-07-24T06:29:34;23.60;1.00
6054;DHT22;3055;50.886;14.814;2023-07-24T06:32:01;23.50;1.00
6054;DHT22;3055;50.886;14.814;2023-07-24T06:34:28;23.60;1.00
6054;DHT22;3055;50.886;14.814;2023-07-24T06:36:57;23.70;1.00
6054;DHT22;3055;50.886;14.814;2023-07-24T06:39:24;23.80;1.00
6054;DHT22;3055;50.886;14.814;2023-07-24T06:41:51;23.90;1.00
6054;DHT22;3055;50.886;14.814;2023-07-24T06:44:19;24.00;1.00
6054;DHT22;3055;50.886;14.814;2023-07-24T06:46:45;24.00;1.00
6054;DHT22;3055;50.886;14.814;2023-07-24T06:49:13;24.00;1.00
6054;DHT22;3055;50.886;14.814;2023-07-24T06:51:40;24.10;1.00
6054;DHT22;3055;50.886;14.814;2023-07-24T06:54:08;24.10;1.00
6054;DHT22;3055;50.886;14.814;2023-07-24T06:56:35;24.20;1.00
6054;DHT22;3055;50.886;14.814;2023-07-24T06:59:02;24.50;1.00
6054;DHT22;3055;50.886;14.814;2023-07-24T07:01:29;24.70;1.00
6054;DHT22;3055;50.886;14.814;2023-07-24T07:03:56;24.80;1.00
6054;DHT22;3055;50.886;14.814;2023-07-24T07:06:23;24.70;1.00
6054;DHT22;3055;50.886;14.814;2023-07-24T07:08:51;24.70;1.00
6054;DHT22;3055;50.886;14.814;2023-07-24T07:11:19;24.90;1.00
6054;DHT22;3055;50.886;14.814;2023-07-24T07:13:46;25.20;1.00
6054;DHT22;3055;50.886;14.814;2023-07-24T07:16:13;25.40;1.00
6054;DHT22;3055;50.886;14.814;2023-07-24T07:18:42;25.60;1.00
6054;DHT22;3055;50.886;14.814;2023-07-24T07:21:09;25.60;1.00
6054;DHT22;3055;50.886;14.814;2023-07-24T07:23:36;25.50;1.00
6054;DHT22;3055;50.886;14.814;2023-07-24T07:26:03;25.40;1.00
6054;DHT22;3055;50.886;14.814;2023-07-24T07:28:32;25.40;1.00
6054;DHT22;3055;50.886;14.814;2023-07-24T07:30:59;25.60;1.00
6054;DHT22;3055;50.886;14.814;2023-07-24T07:33:26;25.90;1.00
6054;DHT22;3055;50.886;14.814;2023-07-24T07:35:53;25.90;1.00
6054;DHT22;3055;50.886;14.814;2023-07-24T07:38:21;25.90;1.00
6054;DHT22;3055;50.886;14.814;2023-07-24T07:40:48;25.80;1.00
6054;DHT22;3055;50.886;14.814;2023-07-24T07:43:15;25.80;1.00
6054;DHT22;3055;50.886;14.814;2023-07-24T07:45:44;26.00;1.00
6054;DHT22;3055;50.886;14.814;2023-07-24T07:48:11;26.10;1.00
6054;DHT22;3055;50.886;14.814;2023-07-24T07:50:38;26.20;1.00
6054;DHT22;3055;50.886;14.814;2023-07-24T07:53:05;26.20;1.00
6054;DHT22;3055;50.886;14.814;2023-07-24T07:55:32;26.40;1.00
6054;DHT22;3055;50.886;14.814;2023-07-24T07:57:59;26.50;1.00
6054;DHT22;3055;50.886;14.814;2023-07-24T08:00:26;26.70;1.00
6054;DHT22;3055;50.886;14.814;2023-07-24T08:02:55;26.90;1.00
6054;DHT22;3055;50.886;14.814;2023-07-24T08:05:22;27.00;1.00
6054;DHT22;3055;50.886;14.814;2023-07-24T08:07:49;27.10;1.00
6054;DHT22;3055;50.886;14.814;2023-07-24T08:10:16;27.20;1.00
6054;DHT22;3055;50.886;14.814;2023-07-24T08:12:43;27.20;1.00
6054;DHT22;3055;50.886;14.814;2023-07-24T08:15:10;27.30;1.00
6054;DHT22;3055;50.886;14.814;2023-07-24T08:17:37;27.50;1.00
6054;DHT22;3055;50.886;14.814;2023-07-24T08:20:07;27.80;1.00
6054;DHT22;3055;50.886;14.814;2023-07-24T08:22:34;27.90;1.00
6054;DHT22;3055;50.886;14.814;2023-07-24T08:25:01;28.30;1.00
6054;DHT22;3055;50.886;14.814;2023-07-24T08:27:28;28.40;1.00
6054;DHT22;3055;50.886;14.814;2023-07-24T08:29:55;28.60;1.00
6054;DHT22;3055;50.886;14.814;2023-07-24T08:32:28;28.80;1.00
6054;DHT22;3055;50.886;14.814;2023-07-24T08:34:55;29.00;1.00
6054;DHT22;3055;50.886;14.814;2023-07-24T08:37:24;29.10;1.00
6054;DHT22;3055;50.886;14.814;2023-07-24T08:39:51;29.10;1.00
6054;DHT22;3055;50.886;14.814;2023-07-24T08:42:18;28.80;1.00
6054;DHT22;3055;50.886;14.814;2023-07-24T08:44:45;28.60;1.00
6054;DHT22;3055;50.886;14.814;2023-07-24T08:47:13;28.40;1.00
6054;DHT22;3055;50.886;14.814;2023-07-24T08:49:42;28.30;1.00
6054;DHT22;3055;50.886;14.814;2023-07-24T08:52:10;28.20;1.00
6054;DHT22;3055;50.886;14.814;2023-07-24T08:54:39;28.30;1.00
6054;DHT22;3055;50.886;14.814;2023-07-24T08:57:07;28.40;1.00
6054;DHT22;3055;50.886;14.814;2023-07-24T08:59:34;28.40;1.00
6054;DHT22;3055;50.886;14.814;2023-07-24T09:02:01;28.40;1.00
6054;DHT22;3055;50.886;14.814;2023-07-24T09:04:29;28.30;1.00
6054;DHT22;3055;50.886;14.814;2023-07-24T09:06:57;28.30;1.00
6054;DHT22;3055;50.886;14.814;2023-07-24T09:09:29;28.40;1.00
6054;DHT22;3055;50.886;14.814;2023-07-24T09:11:57;28.60;1.00
6054;DHT22;3055;50.886;14.814;2023-07-24T09:14:26;28.70;1.00
6054;DHT22;3055;50.886;14.814;2023-07-24T09:17:03;28.70;1.00
6054;DHT22;3055;50.886;14.814;2023-07-24T09:19:30;28.70;99.90
6054;DHT22;3055;50.886;14.814;2023-07-24T09:22:08;28.50;99.90
6054;DHT22;3055;50.886;14.814;2023-07-24T09:24:38;28.40;99.90
6054;DHT22;3055;50.886;14.814;2023-07-24T09:27:16;28.30;99.90
6054;DHT22;3055;50.886;14.814;2023-07-24T09:29:44;28.30;99.90
6054;DHT22;3055;50.886;14.814;2023-07-24T09:32:19;28.10;99.90
6054;DHT22;3055;50.886;14.814;2023-07-24T09:34:47;28.20;99.90
6054;DHT22;3055;50.886;14.814;2023-07-24T09:37:26;28.10;99.90
6054;DHT22;3055;50.886;14.814;2023-07-24T09:39:53;28.20;99.90
6054;DHT22;3055;50.886;14.814;2023-07-24T09:42:32;28.30;99.90
6054;DHT22;3055;50.886;14.814;2023-07-24T09:45:00;28.50;1.00
6054;DHT22;3055;50.886;14.814;2023-07-24T09:47:27;28.50;99.90
6054;DHT22;3055;50.886;14.814;2023-07-24T09:49:55;28.50;99.90
6054;DHT22;3055;50.886;14.814;2023-07-24T09:52:24;28.40;99.90
6054;DHT22;3055;50.886;14.814;2023-07-24T09:54:59;28.50;99.90
6054;DHT22;3055;50.886;14.814;2023-07-24T09:57:29;28.60;99.90
6054;DHT22;3055;50.886;14.814;2023-07-24T09:59:57;28.90;99.90
6054;DHT22;3055;50.886;14.814;2023-07-24T10:02:24;29.10;99.90
6054;DHT22;3055;50.886;14.814;2023-07-24T10:04:52;29.10;99.90
6054;DHT22;3055;50.886;14.814;2023-07-24T10:07:19;29.20;99.90
6054;DHT22;3055;50.886;14.814;2023-07-24T10:09:48;29.10;99.90
6054;DHT22;3055;50.886;14.814;2023-07-24T10:12:17;28.90;99.90
6054;DHT22;3055;50.886;14.814;2023-07-24T10:14:46;28.70;99.90
6054;DHT22;3055;50.886;14.814;2023-07-24T10:17:14;28.50;99.90
6054;DHT22;3055;50.886;14.814;2023-07-24T10:19:41;28.50;99.90
6054;DHT22;3055;50.886;14.814;2023-07-24T10:22:10;28.50;99.90
6054;DHT22;3055;50.886;14.814;2023-07-24T10:24:43;28.50;99.90
6054;DHT22;3055;50.886;14.814;2023-07-24T10:27:11;28.70;99.90
6054;DHT22;3055;50.886;14.814;2023-07-24T10:29:38;29.10;99.90
6054;DHT22;3055;50.886;14.814;2023-07-24T10:32:18;29.10;99.90
6054;DHT22;3055;50.886;14.814;2023-07-24T10:34:45;28.90;99.90
6054;DHT22;3055;50.886;14.814;2023-07-24T10:37:12;28.70;99.90
6054;DHT22;3055;50.886;14.814;2023-07-24T10:39:40;28.40;99.90
6054;DHT22;3055;50.886;14.814;2023-07-24T10:42:08;28.30;99.90
6054;DHT22;3055;50.886;14.814;2023-07-24T10:44:36;28.40;99.90
6054;DHT22;3055;50.886;14.814;2023-07-24T10:47:03;28.50;1.00
6054;DHT22;3055;50.886;14.814;2023-07-24T10:49:33;28.70;99.90
6054;DHT22;3055;50.886;14.814;2023-07-24T10:52:00;29.00;99.90
6054;DHT22;3055;50.886;14.814;2023-07-24T10:54:27;29.40;99.90
6054;DHT22;3055;50.886;14.814;2023-07-24T10:57:00;29.60;99.90
6054;DHT22;3055;50.886;14.814;2023-07-24T10:59:37;29.60;1.00
6054;DHT22;3055;50.886;14.814;2023-07-24T11:02:05;29.40;99.90
6054;DHT22;3055;50.886;14.814;2023-07-24T11:04:35;29.20;99.90
6054;DHT22;3055;50.886;14.814;2023-07-24T11:07:02;29.10;99.90
6054;DHT22;3055;50.886;14.814;2023-07-24T11:09:36;28.70;99.90
6054;DHT22;3055;50.886;14.814;2023-07-24T11:12:14;28.40;99.90
6054;DHT22;3055;50.886;14.814;2023-07-24T11:14:48;28.10;99.90
6054;DHT22;3055;50.886;14.814;2023-07-24T11:17:16;27.80;99.90
6054;DHT22;3055;50.886;14.814;2023-07-24T11:19:44;27.40;99.90
6054;DHT22;3055;50.886;14.814;2023-07-24T11:22:12;27.20;99.90
6054;DHT22;3055;50.886;14.814;2023-07-24T11:24:43;26.90;1.00
6054;DHT22;3055;50.886;14.814;2023-07-24T11:27:12;26.80;1.00
6054;DHT22;3055;50.886;14.814;2023-07-24T11:29:40;26.70;1.00
6054;DHT22;3055;50.886;14.814;2023-07-24T11:32:08;26.70;1.00
6054;DHT22;3055;50.886;14.814;2023-07-24T11:34:35;26.80;1.00
6054;DHT22;3055;50.886;14.814;2023-07-24T11:37:06;26.80;1.00
6054;DHT22;3055;50.886;14.814;2023-07-24T11:39:33;26.80;1.00
6054;DHT22;3055;50.886;14.814;2023-07-24T11:42:01;26.80;1.00
6054;DHT22;3055;50.886;14.814;2023-07-24T11:44:29;27.00;1.00
6054;DHT22;3055;50.886;14.814;2023-07-24T11:47:03;27.20;1.00
6054;DHT22;3055;50.886;14.814;2023-07-24T11:49:31;27.40;1.00
6054;DHT22;3055;50.886;14.814;2023-07-24T11:52:04;27.40;1.00
6054;DHT22;3055;50.886;14.814;2023-07-24T11:54:33;27.70;1.00
6054;DHT22;3055;50.886;14.814;2023-07-24T11:57:01;28.10;1.00
6054;DHT22;3055;50.886;14.814;2023-07-24T11:59:36;28.50;1.00
6054;DHT22;3055;50.886;14.814;2023-07-24T12:02:04;29.00;1.00
6054;DHT22;3055;50.886;14.814;2023-07-24T12:04:32;29.40;1.00
6054;DHT22;3055;50.886;14.814;2023-07-24T12:06:59;29.60;1.00
6054;DHT22;3055;50.886;14.814;2023-07-24T12:09:30;29.80;1.00
6054;DHT22;3055;50.886;14.814;2023-07-24T12:11:58;30.00;1.00
6054;DHT22;3055;50.886;14.814;2023-07-24T12:14:25;29.90;99.90
6054;DHT22;3055;50.886;14.814;2023-07-24T12:17:00;29.80;1.00
6054;DHT22;3055;50.886;14.814;2023-07-24T12:19:27;29.70;99.90
6054;DHT22;3055;50.886;14.814;2023-07-24T12:21:54;29.40;99.90
6054;DHT22;3055;50.886;14.814;2023-07-24T12:24:21;29.30;99.90
6054;DHT22;3055;50.886;14.814;2023-07-24T12:26:50;29.10;99.90
6054;DHT22;3055;50.886;14.814;2023-07-24T12:29:17;28.80;99.90
6054;DHT22;3055;50.886;14.814;2023-07-24T12:31:44;28.50;99.90
6054;DHT22;3055;50.886;14.814;2023-07-24T12:34:11;28.20;99.90
6054;DHT22;3055;50.886;14.814;2023-07-24T12:36:38;27.90;1.00
6054;DHT22;3055;50.886;14.814;2023-07-24T12:39:05;27.70;1.00
6054;DHT22;3055;50.886;14.814;2023-07-24T12:41:32;27.50;1.00
6054;DHT22;3055;50.886;14.814;2023-07-24T12:44:01;27.50;1.00
6054;DHT22;3055;50.886;14.814;2023-07-24T12:46:28;27.80;1.00
6054;DHT22;3055;50.886;14.814;2023-07-24T12:48:55;28.10;1.00
6054;DHT22;3055;50.886;14.814;2023-07-24T12:51:23;28.50;1.00
6054;DHT22;3055;50.886;14.814;2023-07-24T12:53:50;29.10;99.90
6054;DHT22;3055;50.886;14.814;2023-07-24T12:56:17;29.70;99.90
6054;DHT22;3055;50.886;14.814;2023-07-24T12:58:44;30.40;99.90
6054;DHT22;3055;50.886;14.814;2023-07-24T13:01:12;31.00;99.90
6054;DHT22;3055;50.886;14.814;2023-07-24T13:03:39;31.30;99.90
6054;DHT22;3055;50.886;14.814;2023-07-24T13:06:06;31.70;99.90
6054;DHT22;3055;50.886;14.814;2023-07-24T13:08:34;31.90;99.90
6054;DHT22;3055;50.886;14.814;2023-07-24T13:11:01;31.60;99.90
6054;DHT22;3055;50.886;14.814;2023-07-24T13:13:28;31.30;99.90
6054;DHT22;3055;50.886;14.814;2023-07-24T13:15:56;31.30;99.90
6054;DHT22;3055;50.886;14.814;2023-07-24T13:18:24;30.90;99.90
6054;DHT22;3055;50.886;14.814;2023-07-24T13:20:51;30.50;99.90
6054;DHT22;3055;50.886;14.814;2023-07-24T13:23:18;30.20;99.90
6054;DHT22;3055;50.886;14.814;2023-07-24T13:25:45;30.00;99.90
6054;DHT22;3055;50.886;14.814;2023-07-24T13:28:12;29.70;99.90
6054;DHT22;3055;50.886;14.814;2023-07-24T13:30:39;29.40;99.90
6054;DHT22;3055;50.886;14.814;2023-07-24T13:33:06;29.10;99.90
6054;DHT22;3055;50.886;14.814;2023-07-24T13:35:35;28.90;99.90
6054;DHT22;3055;50.886;14.814;2023-07-24T13:38:02;28.80;99.90
6054;DHT22;3055;50.886;14.814;2023-07-24T13:40:29;28.50;99.90
6054;DHT22;3055;50.886;14.814;2023-07-24T13:42:56;28.10;99.90
6054;DHT22;3055;50.886;14.814;2023-07-24T13:45:23;27.80;99.90
6054;DHT22;3055;50.886;14.814;2023-07-24T13:47:50;27.60;99.90
6054;DHT22;3055;50.886;14.814;2023-07-24T13:50:17;27.40;99.90
6054;DHT22;3055;50.886;14.814;2023-07-24T13:52:46;27.30;99.90
6054;DHT22;3055;50.886;14.814;2023-07-24T13:55:13;27.10;99.90
6054;DHT22;3055;50.886;14.814;2023-07-24T13:57:41;26.90;99.90
6054;DHT22;3055;50.886;14.814;2023-07-24T14:00:09;26.70;99.90
6054;DHT22;3055;50.886;14.814;2023-07-24T14:02:36;26.50;99.90
6054;DHT22;3055;50.886;14.814;2023-07-24T14:05:04;26.30;1.00
6054;DHT22;3055;50.886;14.814;2023-07-24T14:07:31;26.20;1.00
6054;DHT22;3055;50.886;14.814;2023-07-24T14:09:59;26.00;1.00
6054;DHT22;3055;50.886;14.814;2023-07-24T14:12:26;25.50;1.00
6054;DHT22;3055;50.886;14.814;2023-07-24T14:14:53;25.00;1.00
6054;DHT22;3055;50.886;14.814;2023-07-24T14:17:20;24.60;1.00
6054;DHT22;3055;50.886;14.814;2023-07-24T14:19:48;24.30;1.00
6054;DHT22;3055;50.886;14.814;2023-07-24T14:22:15;23.80;1.00
6054;DHT22;3055;50.886;14.814;2023-07-24T14:24:42;23.60;14.00
6054;DHT22;3055;50.886;14.814;2023-07-24T14:27:10;23.30;99.90
6054;DHT22;3055;50.886;14.814;2023-07-24T14:29:37;23.10;99.90
6054;DHT22;3055;50.886;14.814;2023-07-24T14:32:05;22.90;1.00
6054;DHT22;3055;50.886;14.814;2023-07-24T14:34:32;23.20;1.00
6054;DHT22;3055;50.886;14.814;2023-07-24T14:36:59;23.90;99.90
6054;DHT22;3055;50.886;14.814;2023-07-24T14:39:27;25.00;99.90
6054;DHT22;3055;50.886;14.814;2023-07-24T14:41:54;25.80;28.00
6054;DHT22;3055;50.886;14.814;2023-07-24T14:44:22;26.20;1.00
6054;DHT22;3055;50.886;14.814;2023-07-24T14:46:49;26.20;1.00
6054;DHT22;3055;50.886;14.814;2023-07-24T14:49:17;26.20;1.00
6054;DHT22;3055;50.886;14.814;2023-07-24T14:51:44;26.20;1.00
6054;DHT22;3055;50.886;14.814;2023-07-24T14:54:11;26.20;1.00
6054;DHT22;3055;50.886;14.814;2023-07-24T14:56:38;26.30;1.00
6054;DHT22;3055;50.886;14.814;2023-07-24T14:59:05;26.60;1.00
6054;DHT22;3055;50.886;14.814;2023-07-24T15:01:33;26.60;1.00
6054;DHT22;3055;50.886;14.814;2023-07-24T15:04:00;26.60;1.00
6054;DHT22;3055;50.886;14.814;2023-07-24T15:06:27;26.80;1.00
6054;DHT22;3055;50.886;14.814;2023-07-24T15:08:57;27.40;1.00
6054;DHT22;3055;50.886;14.814;2023-07-24T15:11:24;27.70;1.00
6054;DHT22;3055;50.886;14.814;2023-07-24T15:13:52;27.70;1.00
6054;DHT22;3055;50.886;14.814;2023-07-24T15:16:20;28.30;1.00
6054;DHT22;3055;50.886;14.814;2023-07-24T15:18:49;29.10;1.00
6054;DHT22;3055;50.886;14.814;2023-07-24T15:21:16;29.30;1.00
6054;DHT22;3055;50.886;14.814;2023-07-24T15:23:43;28.80;1.00
6054;DHT22;3055;50.886;14.814;2023-07-24T15:26:10;28.10;1.00
6054;DHT22;3055;50.886;14.814;2023-07-24T15:28:37;27.60;1.00
6054;DHT22;3055;50.886;14.814;2023-07-24T15:31:05;26.90;1.00
6054;DHT22;3055;50.886;14.814;2023-07-24T15:33:35;26.60;1.00
6054;DHT22;3055;50.886;14.814;2023-07-24T15:36:04;26.50;1.00
6054;DHT22;3055;50.886;14.814;2023-07-24T15:38:31;26.40;1.00
6054;DHT22;3055;50.886;14.814;2023-07-24T15:40:58;26.30;1.00
6054;DHT22;3055;50.886;14.814;2023-07-24T15:43:25;26.30;1.00
6054;DHT22;3055;50.886;14.814;2023-07-24T15:45:53;26.40;1.00
6054;DHT22;3055;50.886;14.814;2023-07-24T15:48:20;26.60;1.00
6054;DHT22;3055;50.886;14.814;2023-07-24T15:50:47;27.40;1.00
6054;DHT22;3055;50.886;14.814;2023-07-24T15:53:15;28.40;1.00
6054;DHT22;3055;50.886;14.814;2023-07-24T15:55:42;29.10;1.00
6054;DHT22;3055;50.886;14.814;2023-07-24T15:58:09;29.50;1.00
6054;DHT22;3055;50.886;14.814;2023-07-24T16:00:36;29.30;1.00